Terminal Aerodrome Forecast
Issued by NWS

Home | Current Version | Previous Version | Graphics & Text | Print | Product List | Glossary On
Versions: 1 2 3 4 5 6 7 8 9 10 11 12 13 14 15 16 17 18 19 20 21 22
000
FTUS43 KGRB 211428 AAA
TAFCWA
TAF AMD
KCWA 211428Z 2114/2212 00000KT 4SM BR VCSH SCT002 BKN090
      TEMPO 2114/2116 1SM -SHRA BR OVC002
     FM211600 VRB03KT P6SM VCSH BKN050 OVC090
     FM220000 VRB03KT 6SM -SHRA VCTS OVC040CB
     FM220200 VRB03KT 5SM SHRA VCTS OVC030CB
     FM220700 VRB03KT P6SM VCSH OVC020
     FM220900 32005KT P6SM OVC008=

USA.gov is the U.S. government's official web portal to all federal, state and local government web resources and services.